Time;durP1;ratioP1;P1;durP2;ratioP2;P2;SDS_P1;SDS_P2;PMS_P1;PMS_P2;Temp;Humidity;BMP_temperature;BMP_pressure;BME280_temperature;BME280_humidity;BME280_pressure;Samples;Min_cycle;Max_cycle;Signal;HPM_P1;HPM_P2
2021/04/25 00:00:48;;;;;;;8.13;3.97;;;6.20;1.00;;;;;;4968938;28;20211;-73
2021/04/25 00:03:13;;;;;;;7.97;4.10;;;6.00;1.00;;;;;;4972763;28;20271;-73
2021/04/25 00:05:39;;;;;;;9.07;4.40;;;6.00;1.00;;;;;;4977501;28;20332;-73
2021/04/25 00:08:05;;;;;;;16.07;5.20;;;6.10;1.00;;;;;;4976620;28;20197;-73
2021/04/25 00:10:33;;;;;;;9.13;4.33;;;6.10;1.00;;;;;;4978657;28;20204;-73
2021/04/25 00:13:05;;;;;;;8.80;4.97;;;6.00;1.00;;;;;;4983849;28;20457;-73
2021/04/25 00:15:34;;;;;;;6.80;3.60;;;5.90;1.00;;;;;;4978805;28;20458;-73
2021/04/25 00:18:00;;;;;;;12.20;4.90;;;6.00;1.00;;;;;;4978389;28;21050;-73
2021/04/25 00:20:26;;;;;;;8.80;5.20;;;5.90;1.00;;;;;;4961377;28;20482;-74
2021/04/25 00:22:54;;;;;;;8.70;4.43;;;6.00;1.00;;;;;;4962249;28;20460;-73
2021/04/25 00:25:20;;;;;;;10.27;4.30;;;6.00;1.00;;;;;;4988928;28;20685;-73
2021/04/25 00:27:47;;;;;;;10.10;4.10;;;6.00;1.00;;;;;;4984785;28;21480;-73
2021/04/25 00:30:17;;;;;;;10.03;4.40;;;6.00;1.00;;;;;;4984222;28;20791;-72
2021/04/25 00:32:47;;;;;;;8.33;4.43;;;6.00;1.00;;;;;;4983501;28;20560;-73
2021/04/25 00:35:14;;;;;;;8.30;4.53;;;5.90;1.00;;;;;;4976447;28;20489;-73
2021/04/25 00:37:43;;;;;;;13.23;4.80;;;5.90;1.00;;;;;;4978913;28;21236;-73
2021/04/25 00:40:10;;;;;;;8.50;4.70;;;5.90;1.00;;;;;;4974608;28;20480;-72
2021/04/25 00:42:39;;;;;;;13.00;5.30;;;5.90;1.00;;;;;;4972662;28;21194;-73
2021/04/25 00:45:09;;;;;;;9.43;4.30;;;5.90;1.00;;;;;;4980385;28;20467;-72
2021/04/25 00:47:35;;;;;;;9.40;5.60;;;5.80;1.00;;;;;;4974244;28;20794;-73
2021/04/25 00:50:02;;;;;;;12.87;5.00;;;5.80;1.00;;;;;;4994474;28;20465;-73
2021/04/25 00:52:28;;;;;;;11.13;4.97;;;5.90;1.00;;;;;;4973460;28;20598;-72
2021/04/25 00:54:54;;;;;;;14.40;4.23;;;5.90;1.00;;;;;;4978011;28;20886;-73
2021/04/25 00:57:23;;;;;;;8.23;4.73;;;5.90;1.00;;;;;;4967917;28;20470;-73
2021/04/25 00:59:53;;;;;;;9.00;4.47;;;5.80;1.00;;;;;;4972057;28;20196;-73
2021/04/25 01:02:19;;;;;;;10.00;4.63;;;5.60;1.00;;;;;;4973369;28;20473;-73
2021/04/25 01:04:48;;;;;;;10.30;4.70;;;5.40;1.00;;;;;;4967073;28;20473;-73
2021/04/25 01:07:14;;;;;;;7.73;3.97;;;5.30;1.00;;;;;;4969375;28;20187;-72
2021/04/25 01:09:40;;;;;;;7.67;4.43;;;5.20;1.00;;;;;;4986736;28;20745;-72
2021/04/25 01:12:11;;;;;;;7.70;4.90;;;5.10;1.00;;;;;;4989553;28;20499;-73
2021/04/25 01:14:39;;;;;;;7.03;4.40;;;5.00;1.00;;;;;;4980861;28;20888;-73
2021/04/25 01:17:08;;;;;;;10.87;4.57;;;4.90;1.00;;;;;;4982054;28;20521;-72
2021/04/25 01:19:34;;;;;;;15.17;5.20;;;4.80;1.00;;;;;;4985789;28;20467;-73
2021/04/25 01:21:59;;;;;;;9.63;4.87;;;4.90;1.00;;;;;;5003176;28;21010;-72
2021/04/25 01:24:25;;;;;;;9.60;4.40;;;4.80;1.00;;;;;;4982159;28;20447;-73
2021/04/25 01:26:51;;;;;;;8.80;5.47;;;4.80;1.00;;;;;;5000553;28;20885;-73
2021/04/25 01:29:18;;;;;;;11.17;5.33;;;4.80;1.00;;;;;;4992566;28;20438;-73
2021/04/25 01:31:43;;;;;;;13.70;4.77;;;4.80;1.00;;;;;;4973106;28;20461;-73
2021/04/25 01:34:12;;;;;;;10.50;5.80;;;4.70;1.00;;;;;;4970857;28;20460;-72
2021/04/25 01:36:38;;;;;;;9.50;4.83;;;4.70;1.00;;;;;;4967949;28;20414;-73
2021/04/25 01:39:08;;;;;;;10.90;5.33;;;4.60;1.00;;;;;;4961289;28;21010;-73
2021/04/25 01:41:37;;;;;;;11.70;6.40;;;4.60;1.00;;;;;;4965067;28;20685;-73
2021/04/25 01:44:04;;;;;;;14.30;5.87;;;4.70;1.00;;;;;;4975985;28;21007;-73
2021/04/25 01:46:32;;;;;;;9.00;5.00;;;4.70;1.00;;;;;;4973441;28;20936;-73
2021/04/25 01:49:03;;;;;;;14.87;5.50;;;4.70;1.00;;;;;;4975950;28;20664;-73
2021/04/25 01:51:32;;;;;;;12.90;6.10;;;5.00;1.00;;;;;;4970728;28;21056;-73
2021/04/25 01:54:00;;;;;;;13.87;6.50;;;5.00;1.00;;;;;;4967243;28;20443;-72
2021/04/25 01:56:29;;;;;;;16.43;6.27;;;5.00;1.00;;;;;;4965743;28;20454;-73
2021/04/25 01:58:55;;;;;;;12.97;6.40;;;5.00;1.00;;;;;;4966612;28;20467;-72
2021/04/25 02:01:21;;;;;;;12.73;5.07;;;5.00;1.00;;;;;;4968411;28;20482;-72
2021/04/25 02:03:47;;;;;;;14.53;6.00;;;5.00;1.00;;;;;;4971045;28;20184;-73
2021/04/25 02:06:13;;;;;;;10.47;6.40;;;5.00;1.00;;;;;;4966390;28;20648;-72
2021/04/25 02:08:41;;;;;;;10.37;6.17;;;5.00;1.00;;;;;;4965350;28;20716;-72
2021/04/25 02:11:14;;;;;;;10.00;5.47;;;5.10;1.00;;;;;;4971613;28;20325;-73
2021/04/25 02:13:41;;;;;;;10.20;5.30;;;5.10;1.00;;;;;;4976973;28;20477;-72
2021/04/25 02:16:10;;;;;;;10.57;5.70;;;5.00;1.00;;;;;;4975485;28;20462;-72
2021/04/25 02:18:39;;;;;;;17.13;5.30;;;4.90;1.00;;;;;;4979865;28;21167;-71
2021/04/25 02:21:05;;;;;;;11.47;5.53;;;4.90;1.00;;;;;;4984323;28;20482;-71
2021/04/25 02:23:31;;;;;;;9.87;5.67;;;4.90;1.00;;;;;;4971549;28;20464;-72
2021/04/25 02:25:57;;;;;;;15.07;5.60;;;5.00;1.00;;;;;;4967731;28;21205;-71
2021/04/25 02:28:25;;;;;;;13.37;6.60;;;4.90;1.00;;;;;;4970493;28;20200;-71
2021/04/25 02:30:53;;;;;;;16.60;6.23;;;4.90;1.00;;;;;;4975239;28;20198;-72
2021/04/25 02:33:20;;;;;;;11.40;5.87;;;4.80;1.00;;;;;;4973112;28;20526;-71
2021/04/25 02:35:46;;;;;;;11.77;5.67;;;4.80;1.00;;;;;;4975661;28;20522;-72
2021/04/25 02:38:17;;;;;;;10.20;5.00;;;4.80;1.00;;;;;;4967513;28;20446;-72
2021/04/25 02:40:46;;;;;;;10.67;5.33;;;4.80;1.00;;;;;;4967430;28;21160;-72
2021/04/25 02:43:14;;;;;;;10.80;5.37;;;4.80;1.00;;;;;;4973360;28;20498;-71
2021/04/25 02:45:40;;;;;;;11.13;6.00;;;4.90;1.00;;;;;;4975704;28;20974;-72
2021/04/25 02:48:10;;;;;;;13.40;7.30;;;4.70;1.00;;;;;;4974554;28;20914;-72
2021/04/25 02:50:41;;;;;;;9.13;5.40;;;4.60;1.00;;;;;;4974634;28;20234;-72
2021/04/25 02:53:13;;;;;;;12.37;6.40;;;4.60;1.00;;;;;;4991096;28;20466;-73
2021/04/25 02:55:43;;;;;;;15.00;7.20;;;4.70;1.00;;;;;;4992483;28;20869;-73
2021/04/25 02:58:14;;;;;;;12.40;6.27;;;4.80;1.00;;;;;;4981320;28;20448;-72
2021/04/25 03:00:44;;;;;;;11.00;6.27;;;4.80;1.00;;;;;;4971826;28;20517;-71
2021/04/25 03:03:10;;;;;;;13.87;5.40;;;4.80;1.00;;;;;;4966823;28;20462;-72
2021/04/25 03:05:39;;;;;;;12.73;6.63;;;4.80;1.00;;;;;;4967981;28;20782;-73
2021/04/25 03:08:09;;;;;;;11.17;5.87;;;4.70;1.00;;;;;;4967370;28;20668;-72
2021/04/25 03:10:34;;;;;;;11.37;5.07;;;4.70;1.00;;;;;;4975972;28;20920;-72
2021/04/25 03:13:03;;;;;;;13.53;6.33;;;4.80;1.00;;;;;;4969064;28;20473;-72
2021/04/25 03:15:34;;;;;;;10.13;6.07;;;4.80;1.00;;;;;;4978116;28;20189;-72
2021/04/25 03:18:06;;;;;;;15.80;6.23;;;4.80;1.00;;;;;;4968039;28;21108;-72
2021/04/25 03:20:35;;;;;;;12.23;6.57;;;4.80;1.00;;;;;;4962087;28;22673;-72
2021/04/25 03:23:04;;;;;;;14.07;5.10;;;4.80;1.00;;;;;;4969319;28;20510;-72
2021/04/25 03:25:30;;;;;;;11.77;6.07;;;4.80;1.00;;;;;;4970318;28;20958;-72
2021/04/25 03:27:57;;;;;;;16.50;5.83;;;4.80;1.00;;;;;;4972726;28;20454;-72
2021/04/25 03:30:23;;;;;;;12.47;5.53;;;4.90;1.00;;;;;;4971521;28;20186;-72
2021/04/25 03:32:57;;;;;;;11.87;6.43;;;4.90;1.00;;;;;;4973350;28;20435;-72
2021/04/25 03:35:23;;;;;;;9.33;5.93;;;4.80;1.00;;;;;;4970487;28;20466;-72
2021/04/25 03:37:49;;;;;;;13.67;6.10;;;4.80;1.00;;;;;;4979128;28;20459;-72
2021/04/25 03:40:18;;;;;;;17.10;6.93;;;4.90;1.00;;;;;;4983882;28;20192;-72
2021/04/25 03:42:50;;;;;;;11.80;6.33;;;4.90;1.00;;;;;;4988545;28;20962;-73
2021/04/25 03:45:18;;;;;;;13.57;7.87;;;4.70;1.00;;;;;;4983137;28;20811;-72
2021/04/25 03:47:46;;;;;;;15.00;7.10;;;4.80;1.00;;;;;;4982620;28;20694;-72
2021/04/25 03:50:16;;;;;;;13.20;6.00;;;4.70;1.00;;;;;;4979422;28;20466;-72
2021/04/25 03:52:43;;;;;;;13.67;6.27;;;4.70;1.00;;;;;;4975007;28;20449;-72
2021/04/25 03:55:19;;;;;;;13.00;5.90;;;4.70;1.00;;;;;;4979945;28;20811;-72
2021/04/25 03:57:47;;;;;;;11.93;6.03;;;4.70;1.00;;;;;;4990539;28;20527;-72
2021/04/25 04:00:15;;;;;;;10.73;5.87;;;4.80;1.00;;;;;;4991933;28;20525;-72
2021/04/25 04:02:44;;;;;;;12.70;6.77;;;4.70;1.00;;;;;;4982276;28;20458;-72
2021/04/25 04:05:10;;;;;;;12.97;6.20;;;4.80;1.00;;;;;;4981331;28;20868;-72
2021/04/25 04:07:36;;;;;;;18.70;5.80;;;4.70;1.00;;;;;;4985221;28;20943;-73
2021/04/25 04:10:03;;;;;;;9.73;6.20;;;4.70;1.00;;;;;;4974227;28;20467;-72
2021/04/25 04:12:32;;;;;;;13.90;8.40;;;4.80;1.00;;;;;;4975997;28;20792;-71
2021/04/25 04:14:58;;;;;;;13.40;6.23;;;4.90;1.00;;;;;;4976257;28;20450;-72
2021/04/25 04:17:23;;;;;;;13.80;7.17;;;4.80;1.00;;;;;;4978378;28;20494;-72
2021/04/25 04:19:52;;;;;;;11.83;6.90;;;4.80;1.00;;;;;;4986728;28;20529;-73
2021/04/25 04:22:22;;;;;;;11.50;6.60;;;4.80;1.00;;;;;;4985334;28;20210;-72
2021/04/25 04:24:48;;;;;;;16.27;6.20;;;4.80;1.00;;;;;;4992126;28;20811;-72
2021/04/25 04:27:16;;;;;;;14.07;7.03;;;4.70;1.00;;;;;;4991299;28;20826;-72
2021/04/25 04:29:42;;;;;;;10.73;6.53;;;4.80;1.00;;;;;;4990969;28;20817;-72
2021/04/25 04:32:08;;;;;;;11.30;7.33;;;4.70;1.00;;;;;;4979833;28;20458;-72
2021/04/25 04:34:37;;;;;;;13.73;5.87;;;4.70;1.00;;;;;;4979235;28;20250;-72
2021/04/25 04:37:03;;;;;;;19.87;6.47;;;4.70;1.00;;;;;;4976163;28;20325;-73
2021/04/25 04:39:29;;;;;;;11.17;5.90;;;4.70;1.00;;;;;;4973963;28;20954;-72
2021/04/25 04:41:55;;;;;;;13.40;6.30;;;4.80;1.00;;;;;;4984074;28;20493;-72
2021/04/25 04:44:20;;;;;;;12.27;5.80;;;4.80;1.00;;;;;;4978912;28;20307;-72
2021/04/25 04:46:52;;;;;;;16.47;6.27;;;4.70;1.00;;;;;;4982801;28;20657;-73
2021/04/25 04:49:20;;;;;;;10.30;6.57;;;4.70;1.00;;;;;;4984765;28;20184;-72
2021/04/25 04:51:49;;;;;;;12.00;5.83;;;4.80;1.00;;;;;;4981652;28;20461;-72
2021/04/25 04:54:21;;;;;;;17.80;7.90;;;4.80;1.00;;;;;;4979007;28;20455;-72
2021/04/25 04:56:53;;;;;;;9.53;5.87;;;4.80;1.00;;;;;;4981807;28;20459;-72
2021/04/25 04:59:21;;;;;;;13.60;5.47;;;4.80;1.00;;;;;;4980206;28;20541;-72
2021/04/25 05:01:49;;;;;;;8.53;6.03;;;4.80;1.00;;;;;;4977085;28;23385;-72
2021/04/25 05:04:18;;;;;;;9.37;6.37;;;4.70;1.00;;;;;;4975567;28;20542;-72
2021/04/25 05:06:44;;;;;;;10.03;5.30;;;4.80;1.00;;;;;;4982131;28;20498;-72
2021/04/25 05:09:10;;;;;;;9.07;5.90;;;4.80;1.00;;;;;;4984359;28;20465;-71
2021/04/25 05:11:36;;;;;;;11.73;6.37;;;4.70;1.00;;;;;;4982967;28;20832;-72
2021/04/25 05:14:01;;;;;;;9.27;5.00;;;4.80;1.00;;;;;;4976866;28;20230;-72
2021/04/25 05:16:28;;;;;;;12.47;5.27;;;4.90;1.00;;;;;;4980314;28;20459;-72
2021/04/25 05:18:54;;;;;;;12.00;5.57;;;4.90;1.00;;;;;;4972284;28;20321;-71
2021/04/25 05:21:20;;;;;;;8.80;5.03;;;4.80;1.00;;;;;;4972502;28;20516;-72
2021/04/25 05:23:46;;;;;;;15.93;5.33;;;4.90;1.00;;;;;;4974353;28;20458;-70
2021/04/25 05:26:12;;;;;;;8.97;5.40;;;4.80;1.00;;;;;;4973453;28;20455;-71
2021/04/25 05:28:38;;;;;;;10.37;4.60;;;4.80;1.00;;;;;;4983462;28;20906;-71
2021/04/25 05:31:04;;;;;;;11.53;5.07;;;4.90;1.00;;;;;;4990562;28;20460;-71
2021/04/25 05:33:36;;;;;;;8.53;4.93;;;4.90;1.00;;;;;;4990626;28;20226;-72
2021/04/25 05:36:02;;;;;;;9.20;5.17;;;4.90;1.00;;;;;;4990669;28;20219;-72
2021/04/25 05:38:27;;;;;;;9.00;5.60;;;4.90;1.00;;;;;;4991418;28;20467;-72
2021/04/25 05:40:53;;;;;;;10.17;4.87;;;5.00;1.00;;;;;;4997260;28;20937;-72
2021/04/25 05:43:19;;;;;;;12.43;5.70;;;5.00;1.00;;;;;;4992541;28;20242;-72
2021/04/25 05:45:45;;;;;;;9.87;4.80;;;5.10;1.00;;;;;;4995242;28;20459;-72
2021/04/25 05:48:10;;;;;;;9.33;4.33;;;5.20;1.00;;;;;;4981671;28;20291;-72
2021/04/25 05:50:36;;;;;;;10.17;4.87;;;5.20;1.00;;;;;;4983336;28;20694;-73
2021/04/25 05:53:02;;;;;;;10.23;6.20;;;5.00;1.00;;;;;;4997504;28;20805;-72
2021/04/25 05:55:28;;;;;;;10.30;3.90;;;5.00;1.00;;;;;;4991823;28;20186;-73
2021/04/25 05:57:56;;;;;;;10.90;3.93;;;5.00;1.00;;;;;;4992955;28;20775;-72
2021/04/25 06:00:30;;;;;;;10.23;4.13;;;5.10;1.00;;;;;;4985218;28;20587;-72
2021/04/25 06:02:56;;;;;;;9.87;4.80;;;5.20;1.00;;;;;;4980224;28;20585;-72
2021/04/25 06:05:27;;;;;;;5.97;3.93;;;5.20;1.00;;;;;;4987267;28;20851;-72
2021/04/25 06:07:53;;;;;;;11.23;4.50;;;5.20;1.00;;;;;;4990598;28;20195;-72
2021/04/25 06:10:20;;;;;;;8.30;4.77;;;5.20;1.00;;;;;;4982399;28;20485;-72
2021/04/25 06:12:48;;;;;;;9.43;5.50;;;5.20;1.00;;;;;;4985229;28;20965;-72
2021/04/25 06:15:16;;;;;;;7.10;4.43;;;5.20;1.00;;;;;;4985249;28;20454;-71
2021/04/25 06:17:41;;;;;;;6.93;4.23;;;5.10;1.00;;;;;;4993632;28;20523;-71
2021/04/25 06:20:13;;;;;;;8.67;4.40;;;5.00;1.00;;;;;;4987921;28;20451;-71
2021/04/25 06:22:45;;;;;;;6.50;4.50;;;5.10;1.00;;;;;;4992550;28;20222;-70
2021/04/25 06:25:12;;;;;;;9.80;4.10;;;5.10;1.00;;;;;;4988631;28;20474;-71
2021/04/25 06:27:41;;;;;;;12.03;4.70;;;5.10;1.00;;;;;;4984444;28;20440;-71
2021/04/25 06:30:16;;;;;;;8.53;4.77;;;5.10;1.00;;;;;;4988696;28;20451;-71
2021/04/25 06:32:43;;;;;;;10.00;4.30;;;5.10;1.00;;;;;;4991712;28;20764;-71
2021/04/25 06:35:11;;;;;;;6.30;4.53;;;5.10;1.00;;;;;;4989499;28;20791;-71
2021/04/25 06:37:38;;;;;;;6.50;4.30;;;5.20;1.00;;;;;;4993717;28;20451;-71
2021/04/25 06:40:04;;;;;;;13.80;6.10;;;5.20;1.00;;;;;;4982112;28;20477;-72
2021/04/25 06:42:33;;;;;;;9.50;5.07;;;5.20;1.00;;;;;;4980198;28;20479;-71
2021/04/25 06:44:59;;;;;;;6.60;4.00;;;5.30;1.00;;;;;;4980520;28;20446;-71
2021/04/25 06:47:27;;;;;;;20.60;4.67;;;5.40;1.00;;;;;;4983121;28;20462;-72
2021/04/25 06:49:53;;;;;;;12.90;4.03;;;5.40;1.00;;;;;;4974986;28;20594;-71
2021/04/25 06:52:19;;;;;;;6.57;4.27;;;5.40;1.00;;;;;;4986068;28;20531;-71
2021/04/25 06:54:44;;;;;;;12.37;4.37;;;5.50;1.00;;;;;;4979077;28;20635;-71
2021/04/25 06:57:10;;;;;;;9.77;5.20;;;5.50;1.00;;;;;;4989470;28;22015;-71
2021/04/25 06:59:36;;;;;;;12.30;3.97;;;5.50;1.00;;;;;;4977649;28;20211;-72
2021/04/25 07:02:01;;;;;;;7.73;4.67;;;5.50;1.00;;;;;;4985533;28;20227;-72
2021/04/25 07:04:27;;;;;;;12.53;4.80;;;5.50;1.00;;;;;;4981731;28;20216;-71
2021/04/25 07:06:53;;;;;;;15.80;4.90;;;5.50;1.00;;;;;;4988503;28;20294;-72
2021/04/25 07:09:19;;;;;;;7.13;3.97;;;5.50;1.00;;;;;;4978049;28;20502;-73
2021/04/25 07:11:45;;;;;;;7.23;4.47;;;5.70;1.00;;;;;;4988408;28;21029;-71
2021/04/25 07:14:10;;;;;;;7.60;3.20;;;5.70;1.00;;;;;;4975429;28;20225;-71
2021/04/25 07:16:39;;;;;;;6.40;4.27;;;5.70;1.00;;;;;;4974744;28;20577;-71
2021/04/25 07:19:05;;;;;;;7.27;4.53;;;5.70;1.00;;;;;;4971640;28;20546;-71
2021/04/25 07:21:33;;;;;;;5.77;3.90;;;5.60;1.00;;;;;;4966347;28;20487;-71
2021/04/25 07:23:59;;;;;;;6.50;4.37;;;5.60;1.00;;;;;;4969931;28;20181;-71
2021/04/25 07:26:25;;;;;;;6.20;3.60;;;5.60;1.00;;;;;;4964934;28;20443;-72
2021/04/25 07:28:50;;;;;;;9.03;3.53;;;5.60;1.00;;;;;;4970502;28;20451;-72
2021/04/25 07:31:16;;;;;;;7.40;4.23;;;5.60;1.00;;;;;;4973105;28;20199;-72
2021/04/25 07:33:42;;;;;;;5.80;3.63;;;5.60;1.00;;;;;;4970655;28;20197;-72
2021/04/25 07:36:09;;;;;;;9.27;3.43;;;5.80;1.00;;;;;;4975888;28;20266;-72
2021/04/25 07:38:41;;;;;;;5.33;3.70;;;5.70;1.00;;;;;;4973299;28;20549;-72
2021/04/25 07:41:14;;;;;;;7.67;3.90;;;5.80;1.00;;;;;;4974679;28;20481;-72
2021/04/25 07:43:41;;;;;;;5.43;3.47;;;5.90;1.00;;;;;;4965915;28;20814;-72
2021/04/25 07:46:07;;;;;;;8.47;4.50;;;6.10;1.00;;;;;;4976076;28;20445;-72
2021/04/25 07:48:33;;;;;;;7.37;4.83;;;6.00;1.00;;;;;;4969432;28;20189;-72
2021/04/25 07:50:59;;;;;;;8.53;3.50;;;5.90;1.00;;;;;;4965905;28;20482;-72
2021/04/25 07:53:24;;;;;;;7.97;4.00;;;6.10;1.00;;;;;;4967107;28;20188;-72
2021/04/25 07:55:50;;;;;;;7.27;3.50;;;6.10;1.00;;;;;;4974396;28;20500;-72
2021/04/25 07:58:16;;;;;;;7.17;4.07;;;6.10;1.00;;;;;;4969836;28;20199;-73
2021/04/25 08:00:41;;;;;;;9.73;4.50;;;6.10;1.00;;;;;;4971244;28;20193;-72
2021/04/25 08:03:14;;;;;;;8.80;4.60;;;6.10;1.00;;;;;;4972944;28;20273;-72
2021/04/25 08:05:39;;;;;;;11.93;4.53;;;6.20;1.00;;;;;;4965465;28;20236;-72
2021/04/25 08:08:05;;;;;;;9.30;4.67;;;6.30;1.00;;;;;;4971306;28;20458;-72
2021/04/25 08:10:34;;;;;;;5.97;3.80;;;6.30;1.00;;;;;;4973813;28;20188;-72
2021/04/25 08:13:06;;;;;;;6.07;3.40;;;6.40;1.00;;;;;;4968193;28;21962;-73
2021/04/25 08:15:38;;;;;;;14.63;4.10;;;6.50;1.00;;;;;;4974298;28;20539;-72
2021/04/25 08:18:04;;;;;;;7.47;3.67;;;6.80;1.00;;;;;;4987713;28;20971;-73
2021/04/25 08:20:30;;;;;;;8.83;4.17;;;7.10;1.00;;;;;;4977813;28;20457;-73
2021/04/25 08:22:58;;;;;;;11.47;3.53;;;7.20;1.00;;;;;;4971249;28;20465;-72
2021/04/25 08:25:24;;;;;;;5.57;3.70;;;7.20;1.00;;;;;;4968712;28;20198;-72
2021/04/25 08:27:54;;;;;;;9.00;4.27;;;7.20;1.00;;;;;;4971768;28;20463;-72
2021/04/25 08:30:20;;;;;;;8.77;3.43;;;7.20;1.00;;;;;;4972016;28;20188;-72
2021/04/25 08:32:46;;;;;;;8.57;3.77;;;7.00;1.00;;;;;;4971431;28;20464;-72
2021/04/25 08:35:15;;;;;;;7.07;3.27;;;7.00;1.00;;;;;;4967804;28;20606;-72
2021/04/25 08:37:40;;;;;;;7.97;3.53;;;7.00;1.00;;;;;;4971487;28;20205;-72
2021/04/25 08:40:07;;;;;;;14.70;4.83;;;6.90;1.00;;;;;;4976601;28;21258;-72
2021/04/25 08:42:33;;;;;;;12.73;3.77;;;6.70;1.00;;;;;;4977234;28;20209;-72
2021/04/25 08:44:59;;;;;;;6.20;3.53;;;6.60;1.00;;;;;;4975150;28;20977;-72
2021/04/25 08:47:38;;;;;;;9.37;3.80;;;6.40;1.00;;;;;;4977225;28;20504;-72
2021/04/25 08:50:07;;;;;;;9.60;4.23;;;6.40;1.00;;;;;;4971250;28;20550;-72
2021/04/25 08:52:33;;;;;;;6.93;3.93;;;6.50;1.00;;;;;;4977470;28;20706;-72
2021/04/25 08:54:59;;;;;;;8.00;3.83;;;6.60;1.00;;;;;;4971523;28;20523;-72
2021/04/25 08:57:25;;;;;;;8.17;4.07;;;6.50;1.00;;;;;;4973382;28;21005;-72
2021/04/25 08:59:50;;;;;;;12.23;4.17;;;6.60;1.00;;;;;;4971849;28;20223;-71
2021/04/25 09:02:16;;;;;;;6.63;3.90;;;6.70;1.00;;;;;;4968408;28;20761;-72
2021/04/25 09:04:42;;;;;;;6.60;3.67;;;6.70;1.00;;;;;;4961968;28;20200;-71
2021/04/25 09:07:14;;;;;;;7.53;3.73;;;6.70;1.00;;;;;;4968714;28;21080;-72
2021/04/25 09:09:52;;;;;;;6.63;3.83;;;6.70;1.00;;;;;;4975434;28;20306;-72
2021/04/25 09:12:45;;;;;;;9.50;3.80;;;6.60;1.00;;;;;;4979951;28;20492;-72
2021/04/25 09:15:14;;;;;;;12.37;4.17;;;6.80;1.00;;;;;;4979196;28;20887;-72
2021/04/25 09:17:58;;;;;;;12.33;3.93;;;7.30;1.00;;;;;;4977527;28;21323;-72
2021/04/25 09:20:44;;;;;;;5.10;3.47;;;7.50;1.00;;;;;;4977270;28;20499;-72
2021/04/25 09:23:29;;;;;;;9.33;4.10;;;7.80;1.00;;;;;;4977092;28;20523;-72
2021/04/25 09:26:10;;;;;;;5.43;3.40;;;7.80;1.00;;;;;;4973896;28;20545;-72
2021/04/25 09:28:37;;;;;;;7.87;3.90;;;8.00;1.00;;;;;;4959009;28;21297;-73
2021/04/25 09:31:16;;;;;;;7.17;4.03;;;8.00;1.00;;;;;;4963915;28;21209;-72
2021/04/25 09:33:58;;;;;;;6.60;3.00;;;8.30;1.00;;;;;;4972992;28;21000;-72
2021/04/25 09:36:29;;;;;;;6.70;3.27;;;8.30;1.00;;;;;;4966866;28;20464;-72
2021/04/25 09:39:17;;;;;;;7.80;3.93;;;8.20;1.00;;;;;;4956052;28;20505;-73
2021/04/25 09:41:43;;;;;;;7.00;4.00;;;8.30;1.00;;;;;;4977065;28;20879;-72
2021/04/25 09:44:32;;;;;;;8.10;4.50;;;8.20;1.00;;;;;;4980309;28;20454;-72
2021/04/25 09:47:05;;;;;;;9.53;4.73;;;8.20;1.00;;;;;;4979900;28;20452;-73
2021/04/25 09:50:15;;;;;;;12.50;4.60;;;8.30;1.00;;;;;;4976771;28;20456;-72
2021/04/25 09:52:42;;;;;;;10.40;4.33;;;8.60;1.00;;;;;;4970332;28;20572;-72
2021/04/25 09:55:15;;;;;;;5.37;3.80;;;8.50;1.00;;;;;;4991544;28;20445;-73
2021/04/25 09:57:42;;;;;;;7.10;4.27;;;8.60;1.00;;;;;;4980302;28;20967;-73
2021/04/25 10:00:11;;;;;;;17.10;5.33;;;8.70;1.00;;;;;;4985016;28;20802;-72
2021/04/25 10:02:56;;;;;;;7.83;4.80;;;8.70;1.00;;;;;;4991411;28;20471;-72
2021/04/25 10:05:22;;;;;;;8.80;4.50;;;8.70;1.00;;;;;;4980426;28;20449;-72
2021/04/25 10:07:48;;;;;;;11.23;4.63;;;8.80;1.00;;;;;;4980732;28;20482;-72
2021/04/25 10:10:16;;;;;;;7.73;4.00;;;8.60;1.00;;;;;;4987891;28;20438;-72
2021/04/25 10:12:48;;;;;;;4.57;2.83;;;8.60;1.00;;;;;;4984711;28;20708;-72
2021/04/25 10:15:16;;;;;;;4.73;3.83;;;8.60;1.00;;;;;;4976396;28;20524;-72
2021/04/25 10:17:46;;;;;;;11.87;4.17;;;8.70;1.00;;;;;;4988109;28;20466;-72
2021/04/25 10:20:15;;;;;;;5.60;3.47;;;8.90;1.00;;;;;;4986817;28;20453;-73
2021/04/25 10:22:42;;;;;;;6.30;4.00;;;9.00;1.00;;;;;;4990185;28;20852;-72
2021/04/25 10:25:14;;;;;;;5.73;4.23;;;8.80;1.00;;;;;;4988355;28;20961;-72
2021/04/25 10:27:56;;;;;;;6.30;4.40;;;8.90;1.00;;;;;;4988655;28;20511;-73
2021/04/25 10:30:29;;;;;;;5.60;4.17;;;8.80;1.00;;;;;;4986044;28;20444;-72
2021/04/25 10:32:57;;;;;;;6.00;3.20;;;8.70;1.00;;;;;;4979642;28;20456;-72
2021/04/25 10:35:29;;;;;;;6.57;3.83;;;8.70;1.00;;;;;;4979766;28;20448;-72
2021/04/25 10:37:57;;;;;;;10.27;3.50;;;8.60;1.00;;;;;;4983557;28;20626;-72
2021/04/25 10:40:47;;;;;;;6.33;3.70;;;8.80;1.00;;;;;;4977124;28;20531;-72
2021/04/25 10:43:14;;;;;;;11.47;5.00;;;8.90;1.00;;;;;;4982189;28;21351;-72
2021/04/25 10:45:58;;;;;;;7.97;6.07;;;9.30;1.00;;;;;;4995995;28;20518;-72
2021/04/25 10:48:31;;;;;;;5.83;3.50;;;9.50;1.00;;;;;;4971555;28;20481;-73
2021/04/25 10:51:08;;;;;;;6.03;3.17;;;9.60;1.00;;;;;;4988044;28;20467;-73
2021/04/25 10:53:38;;;;;;;8.93;4.60;;;9.80;1.00;;;;;;4981842;28;20449;-73
2021/04/25 10:56:20;;;;;;;8.73;3.27;;;9.70;1.00;;;;;;4966406;28;20593;-72
2021/04/25 10:59:23;;;;;;;7.13;4.33;;;9.60;1.00;;;;;;4969473;28;20461;-71
2021/04/25 11:01:48;;;;;;;6.20;3.77;;;9.60;1.00;;;;;;4960971;28;20519;-72
2021/04/25 11:04:53;;;;;;;9.00;4.00;;;9.60;1.00;;;;;;4971665;28;20537;-72
2021/04/25 11:07:40;;;;;;;8.10;3.43;;;9.70;1.00;;;;;;4963866;28;20756;-73
2021/04/25 11:10:06;;;;;;;3.57;3.27;;;9.90;1.00;;;;;;4971696;28;21162;-73
2021/04/25 11:12:43;;;;;;;7.87;4.33;;;9.70;1.00;;;;;;4966484;28;20610;-72
2021/04/25 11:15:11;;;;;;;6.57;3.63;;;9.60;1.00;;;;;;4973761;28;20442;-72
2021/04/25 11:17:40;;;;;;;7.73;3.53;;;9.70;1.00;;;;;;4963510;28;20460;-72
2021/04/25 11:20:28;;;;;;;4.80;4.07;;;9.70;1.00;;;;;;4973347;28;20451;-72
2021/04/25 11:22:54;;;;;;;5.00;4.07;;;9.80;1.00;;;;;;4963171;28;20486;-72
2021/04/25 11:25:30;;;;;;;11.43;4.30;;;9.90;1.00;;;;;;4959978;28;20470;-72
2021/04/25 11:28:02;;;;;;;5.40;3.70;;;10.10;1.00;;;;;;4972709;28;20821;-72
2021/04/25 11:30:43;;;;;;;6.40;3.97;;;10.20;1.00;;;;;;4960355;28;20814;-72
2021/04/25 11:33:34;;;;;;;11.13;4.97;;;10.10;1.00;;;;;;4973506;28;20918;-72
2021/04/25 11:36:38;;;;;;;14.80;4.33;;;10.20;1.00;;;;;;4963374;28;20452;-72
2021/04/25 11:39:05;;;;;;;6.07;4.30;;;9.90;1.00;;;;;;4956085;28;21055;-72
2021/04/25 11:41:31;;;;;;;5.43;4.23;;;9.90;1.00;;;;;;4982363;28;20490;-72
2021/04/25 11:44:02;;;;;;;4.90;3.43;;;10.00;1.00;;;;;;4968811;28;20919;-72
2021/04/25 11:46:33;;;;;;;5.90;3.63;;;10.20;1.00;;;;;;4983602;28;20450;-72
2021/04/25 11:49:02;;;;;;;4.60;3.23;;;10.10;1.00;;;;;;4976958;28;21015;-72
2021/04/25 11:51:31;;;;;;;6.50;3.20;;;10.20;1.00;;;;;;4969787;28;20823;-73
2021/04/25 11:53:58;;;;;;;3.80;2.90;;;10.20;1.00;;;;;;4973734;28;20632;-73
2021/04/25 11:56:29;;;;;;;6.33;3.30;;;10.40;1.00;;;;;;4961546;28;20811;-72
2021/04/25 11:59:07;;;;;;;8.53;3.20;;;10.40;1.00;;;;;;4971160;28;20452;-72
2021/04/25 12:01:39;;;;;;;6.33;3.53;;;10.20;1.00;;;;;;4975082;28;20486;-72
2021/04/25 12:04:08;;;;;;;5.23;4.07;;;10.40;1.00;;;;;;4982042;28;20449;-72
2021/04/25 12:06:47;;;;;;;11.30;3.97;;;10.40;1.00;;;;;;4984710;28;20557;-72
2021/04/25 12:09:15;;;;;;;9.87;3.43;;;10.50;1.00;;;;;;4988666;28;20485;-72
2021/04/25 12:11:41;;;;;;;9.20;3.70;;;10.50;1.00;;;;;;4971945;28;21248;-73
2021/04/25 12:14:20;;;;;;;5.90;3.53;;;10.60;1.00;;;;;;4974504;28;20474;-72
2021/04/25 12:16:46;;;;;;;10.40;3.63;;;10.70;1.00;;;;;;4971561;28;22021;-73
2021/04/25 12:19:20;;;;;;;5.60;4.27;;;10.70;1.00;;;;;;4964508;28;20467;-72
2021/04/25 12:21:46;;;;;;;8.40;3.57;;;10.70;1.00;;;;;;4971198;28;20221;-72
2021/04/25 12:24:11;;;;;;;12.50;3.90;;;10.50;1.00;;;;;;4967830;28;20482;-72
2021/04/25 12:26:40;;;;;;;6.10;3.97;;;10.50;1.00;;;;;;4978047;28;21043;-72
2021/04/25 12:29:06;;;;;;;7.93;3.47;;;10.60;1.00;;;;;;4976690;28;20649;-72
2021/04/25 12:31:45;;;;;;;6.20;3.50;;;10.50;1.00;;;;;;4975247;28;20877;-72
2021/04/25 12:34:20;;;;;;;9.90;3.50;;;10.60;1.00;;;;;;4971401;28;20192;-72
2021/04/25 12:36:50;;;;;;;7.90;3.63;;;10.70;1.00;;;;;;4977341;28;20514;-72
2021/04/25 12:39:16;;;;;;;5.47;4.10;;;10.90;1.00;;;;;;4961859;28;20547;-72
2021/04/25 12:41:44;;;;;;;8.83;5.60;;;11.00;1.00;;;;;;4976888;28;20879;-72
2021/04/25 12:44:11;;;;;;;7.80;4.27;;;11.00;1.00;;;;;;4998484;28;20414;-72
2021/04/25 12:46:37;;;;;;;8.03;5.90;;;10.90;1.00;;;;;;4979855;28;20735;-72
2021/04/25 12:49:09;;;;;;;12.47;4.30;;;10.70;1.00;;;;;;4987493;28;20472;-72
2021/04/25 12:51:41;;;;;;;10.70;5.80;;;10.80;1.00;;;;;;4980050;28;20709;-72
2021/04/25 12:54:27;;;;;;;7.37;4.90;;;10.80;1.00;;;;;;4992108;28;21101;-72
2021/04/25 12:56:56;;;;;;;7.50;4.50;;;10.90;1.00;;;;;;4978668;28;20456;-71
2021/04/25 12:59:25;;;;;;;10.70;4.50;;;10.90;1.00;;;;;;4981647;28;20961;-72
2021/04/25 13:02:08;;;;;;;8.00;3.90;;;11.00;1.00;;;;;;4969738;28;20475;-72
2021/04/25 13:04:40;;;;;;;10.10;4.70;;;11.10;1.00;;;;;;4996699;28;20450;-72
2021/04/25 13:07:23;;;;;;;6.30;4.03;;;11.30;1.00;;;;;;4979530;28;20450;-72
2021/04/25 13:09:58;;;;;;;8.37;3.83;;;11.40;1.00;;;;;;4971803;28;21026;-72
2021/04/25 13:12:48;;;;;;;7.67;4.10;;;11.20;1.00;;;;;;4985368;28;20454;-71
2021/04/25 13:15:27;;;;;;;7.33;4.40;;;11.30;1.00;;;;;;4985805;28;20485;-70